Lumberton, NC

1:35 PM EST on February 22, 2017 (GMT -0500)
Lumberton Municipal | | Change Station

Elev 125 ft 34.61 °N, 79.06 °W | Updated 41 minutes ago

Mostly Cloudy
Mostly Cloudy
74 °F
Feels Like 74 °F
N
8
Wind Variable Wind from ESE

Today
High -- | Low -- °F
--% Chance of Precip.
Yesterday
High -- | Low -- °F
Precip. -- in
Pressure 29.94 in
Visibility 10.0 miles
Clouds Scattered Clouds 4700 ft
Dew Point 51 °F
Humidity 45%
Rainfall 0.00 in
Snow Depth Not available.
6:53 AM 6:06 PM
Waning Crescent, 16% visible
METAR KLBT 221754Z AUTO 12007KT 10SM SCT047 23/11 A2994 RMK AO2 RAB1656E54 SLP137 P0000 60000 T02330106 10239 20117 58019
Pressure 29.94 in
Visibility 10.0 miles
Clouds Scattered Clouds 4700 ft
Dew Point 51 °F
Humidity 45%
Rainfall 0.00 in
Snow Depth Not available.
6:53 AM 6:06 PM
Waning Crescent, 16% visible
METAR KLBT 221754Z AUTO 12007KT 10SM SCT047 23/11 A2994 RMK AO2 RAB1656E54 SLP137 P0000 60000 T02330106 10239 20117 58019

Get Your Daily Forecast Email!

Thanks for signing up!

Be on the lookout for a verification email in your inbox.

You'll start receiving the daily forecast at 8 AM.

×

10-Day Weather Forecast

Almanac

Astronomy

Feb. 22, 2017 Rise Set
Actual Time
Civil Twilight
Nautical Twilight
Astronomical Twilight
Moon
Length of Visible Light
Length of Day
Tomorrow will be .
, % of the Moon is Illuminated

Today's Extremes

State Highs State Lows

Community

WunderPhotos

Upload Photos

1,962,540 photos uploaded!

WunderBlog® & News

Nearby

Air Quality

  Air Quality AQ Index Pollutant
Not available.

Snow Depth

Station Depth Elevation

Earthquake Activity

City Distance Mag. Time & Date
Minimum magnitude displayed is 2.5.

Coastal Water Temperatures

Place Temperature

Stations

Nearby Weather Stations

Station Location Temp. Windchill Dew Point Humidity Wind Precip. Elev Updated Type
                   

Watches & Warnings

There are currently no watches in effect.